sensor_id;sensor_type;location;lat;lon;timestamp;pressure;altitude;pressure_sealevel;temperature;humidity
75157;BME280;63736;50.076;8.198;2023-10-31T00:01:15;97772.91;;;11.76;100.00
75157;BME280;63736;50.076;8.198;2023-10-31T00:03:40;97780.00;;;11.68;100.00
75157;BME280;63736;50.076;8.198;2023-10-31T00:06:07;97783.06;;;11.65;100.00
75157;BME280;63736;50.076;8.198;2023-10-31T00:08:33;97783.56;;;11.61;100.00
75157;BME280;63736;50.076;8.198;2023-10-31T00:10:58;97784.56;;;11.60;100.00
75157;BME280;63736;50.076;8.198;2023-10-31T00:13:23;97783.94;;;11.57;100.00
75157;BME280;63736;50.076;8.198;2023-10-31T00:15:49;97795.28;;;11.60;100.00
75157;BME280;63736;50.076;8.198;2023-10-31T00:18:14;97796.13;;;11.60;100.00
75157;BME280;63736;50.076;8.198;2023-10-31T00:20:40;97799.44;;;11.62;100.00
75157;BME280;63736;50.076;8.198;2023-10-31T00:23:05;97793.09;;;11.63;100.00
75157;BME280;63736;50.076;8.198;2023-10-31T00:25:30;97801.94;;;11.64;100.00
75157;BME280;63736;50.076;8.198;2023-10-31T00:27:55;97797.44;;;11.64;100.00
75157;BME280;63736;50.076;8.198;2023-10-31T00:30:21;97799.25;;;11.64;100.00
75157;BME280;63736;50.076;8.198;2023-10-31T00:32:46;97809.31;;;11.62;100.00
75157;BME280;63736;50.076;8.198;2023-10-31T00:35:11;97810.31;;;11.61;100.00
75157;BME280;63736;50.076;8.198;2023-10-31T00:37:38;97807.16;;;11.57;100.00
75157;BME280;63736;50.076;8.198;2023-10-31T00:40:06;97811.88;;;11.55;100.00
75157;BME280;63736;50.076;8.198;2023-10-31T00:42:31;97807.72;;;11.52;100.00
75157;BME280;63736;50.076;8.198;2023-10-31T00:44:56;97811.56;;;11.50;100.00
75157;BME280;63736;50.076;8.198;2023-10-31T00:47:22;97814.38;;;11.48;100.00
75157;BME280;63736;50.076;8.198;2023-10-31T00:49:47;97813.75;;;11.46;100.00
75157;BME280;63736;50.076;8.198;2023-10-31T00:52:12;97810.97;;;11.39;100.00
75157;BME280;63736;50.076;8.198;2023-10-31T00:54:37;97809.81;;;11.34;100.00
75157;BME280;63736;50.076;8.198;2023-10-31T00:57:03;97811.34;;;11.28;100.00
75157;BME280;63736;50.076;8.198;2023-10-31T00:59:28;97817.38;;;11.22;100.00
75157;BME280;63736;50.076;8.198;2023-10-31T01:01:53;97825.47;;;11.14;100.00
75157;BME280;63736;50.076;8.198;2023-10-31T01:04:18;97825.66;;;11.04;100.00
75157;BME280;63736;50.076;8.198;2023-10-31T01:06:44;97824.03;;;10.95;100.00
75157;BME280;63736;50.076;8.198;2023-10-31T01:09:09;97822.59;;;10.84;100.00
75157;BME280;63736;50.076;8.198;2023-10-31T01:11:35;97820.94;;;10.74;100.00
75157;BME280;63736;50.076;8.198;2023-10-31T01:14:01;97821.97;;;10.65;100.00
75157;BME280;63736;50.076;8.198;2023-10-31T01:16:26;97838.84;;;10.57;100.00
75157;BME280;63736;50.076;8.198;2023-10-31T01:18:51;97836.03;;;10.51;100.00
75157;BME280;63736;50.076;8.198;2023-10-31T01:21:17;97839.38;;;10.45;100.00
75157;BME280;63736;50.076;8.198;2023-10-31T01:23:42;97833.06;;;10.46;100.00
75157;BME280;63736;50.076;8.198;2023-10-31T01:26:07;97844.72;;;10.45;100.00
75157;BME280;63736;50.076;8.198;2023-10-31T01:28:33;97847.88;;;10.40;100.00
75157;BME280;63736;50.076;8.198;2023-10-31T01:30:58;97849.91;;;10.38;100.00
75157;BME280;63736;50.076;8.198;2023-10-31T01:33:23;97846.56;;;10.36;100.00
75157;BME280;63736;50.076;8.198;2023-10-31T01:35:48;97848.53;;;10.34;100.00
75157;BME280;63736;50.076;8.198;2023-10-31T01:38:14;97849.03;;;10.29;100.00
75157;BME280;63736;50.076;8.198;2023-10-31T01:40:39;97855.22;;;10.21;100.00
75157;BME280;63736;50.076;8.198;2023-10-31T01:43:04;97861.41;;;10.14;100.00
75157;BME280;63736;50.076;8.198;2023-10-31T01:45:29;97858.22;;;10.10;100.00
75157;BME280;63736;50.076;8.198;2023-10-31T01:47:55;97863.56;;;10.10;100.00
75157;BME280;63736;50.076;8.198;2023-10-31T01:50:20;97857.72;;;10.15;100.00
75157;BME280;63736;50.076;8.198;2023-10-31T01:52:46;97857.22;;;10.19;100.00
75157;BME280;63736;50.076;8.198;2023-10-31T01:55:12;97854.53;;;10.19;100.00
75157;BME280;63736;50.076;8.198;2023-10-31T01:57:37;97860.72;;;10.20;100.00
75157;BME280;63736;50.076;8.198;2023-10-31T02:00:04;97863.72;;;10.17;100.00
75157;BME280;63736;50.076;8.198;2023-10-31T02:02:33;97872.06;;;10.14;100.00
75157;BME280;63736;50.076;8.198;2023-10-31T02:04:59;97873.06;;;10.13;100.00
75157;BME280;63736;50.076;8.198;2023-10-31T02:07:25;97868.41;;;10.15;100.00
75157;BME280;63736;50.076;8.198;2023-10-31T02:09:50;97869.41;;;10.14;100.00
75157;BME280;63736;50.076;8.198;2023-10-31T02:12:36;97865.41;;;10.09;100.00
75157;BME280;63736;50.076;8.198;2023-10-31T02:15:03;97869.72;;;10.02;100.00
75157;BME280;63736;50.076;8.198;2023-10-31T02:17:29;97873.06;;;9.96;100.00
75157;BME280;63736;50.076;8.198;2023-10-31T02:19:54;97871.06;;;9.90;100.00
75157;BME280;63736;50.076;8.198;2023-10-31T02:22:19;97868.53;;;9.80;100.00
75157;BME280;63736;50.076;8.198;2023-10-31T02:24:45;97867.69;;;9.71;100.00
75157;BME280;63736;50.076;8.198;2023-10-31T02:27:10;97876.38;;;9.65;100.00
75157;BME280;63736;50.076;8.198;2023-10-31T02:29:35;97874.34;;;9.59;100.00
75157;BME280;63736;50.076;8.198;2023-10-31T02:32:01;97868.66;;;9.54;100.00
75157;BME280;63736;50.076;8.198;2023-10-31T02:34:26;97867.63;;;9.47;100.00
75157;BME280;63736;50.076;8.198;2023-10-31T02:36:51;97865.94;;;9.37;100.00
75157;BME280;63736;50.076;8.198;2023-10-31T02:39:17;97875.91;;;9.27;100.00
75157;BME280;63736;50.076;8.198;2023-10-31T02:41:42;97869.88;;;9.17;100.00
75157;BME280;63736;50.076;8.198;2023-10-31T02:44:08;97870.84;;;9.07;100.00
75157;BME280;63736;50.076;8.198;2023-10-31T02:46:37;97876.31;;;8.98;100.00
75157;BME280;63736;50.076;8.198;2023-10-31T02:49:03;97873.75;;;8.88;100.00
75157;BME280;63736;50.076;8.198;2023-10-31T02:51:28;97885.88;;;8.82;100.00
75157;BME280;63736;50.076;8.198;2023-10-31T02:53:53;97886.50;;;8.76;100.00
75157;BME280;63736;50.076;8.198;2023-10-31T02:56:19;97885.97;;;8.72;100.00
75157;BME280;63736;50.076;8.198;2023-10-31T02:58:44;97896.13;;;8.69;100.00
75157;BME280;63736;50.076;8.198;2023-10-31T03:01:11;97897.41;;;8.65;100.00
75157;BME280;63736;50.076;8.198;2023-10-31T03:03:36;97892.25;;;8.63;100.00
75157;BME280;63736;50.076;8.198;2023-10-31T03:06:01;97898.44;;;8.64;100.00
75157;BME280;63736;50.076;8.198;2023-10-31T03:08:27;97896.59;;;8.64;100.00
75157;BME280;63736;50.076;8.198;2023-10-31T03:10:53;97903.75;;;8.64;100.00
75157;BME280;63736;50.076;8.198;2023-10-31T03:13:18;97910.88;;;8.63;100.00
75157;BME280;63736;50.076;8.198;2023-10-31T03:15:45;97915.53;;;8.61;100.00
75157;BME280;63736;50.076;8.198;2023-10-31T03:18:11;97924.97;;;8.55;100.00
75157;BME280;63736;50.076;8.198;2023-10-31T03:20:37;97922.09;;;8.49;100.00
75157;BME280;63736;50.076;8.198;2023-10-31T03:23:02;97917.09;;;8.46;100.00
75157;BME280;63736;50.076;8.198;2023-10-31T03:25:27;97930.63;;;8.52;100.00
75157;BME280;63736;50.076;8.198;2023-10-31T03:27:52;97931.53;;;8.61;100.00
75157;BME280;63736;50.076;8.198;2023-10-31T03:30:18;97937.50;;;8.63;100.00
75157;BME280;63736;50.076;8.198;2023-10-31T03:32:43;97940.50;;;8.60;100.00
75157;BME280;63736;50.076;8.198;2023-10-31T03:35:08;97944.97;;;8.59;100.00
75157;BME280;63736;50.076;8.198;2023-10-31T03:37:33;97937.28;;;8.56;100.00
75157;BME280;63736;50.076;8.198;2023-10-31T03:39:59;97944.47;;;8.56;100.00
75157;BME280;63736;50.076;8.198;2023-10-31T03:42:24;97943.59;;;8.55;100.00
75157;BME280;63736;50.076;8.198;2023-10-31T03:44:49;97965.75;;;8.56;100.00
75157;BME280;63736;50.076;8.198;2023-10-31T03:47:14;97963.47;;;8.61;100.00
75157;BME280;63736;50.076;8.198;2023-10-31T03:49:40;97967.16;;;8.68;100.00
75157;BME280;63736;50.076;8.198;2023-10-31T03:52:05;97971.69;;;8.76;100.00
75157;BME280;63736;50.076;8.198;2023-10-31T03:54:31;97981.13;;;8.88;100.00
75157;BME280;63736;50.076;8.198;2023-10-31T03:56:56;97979.31;;;8.97;100.00
75157;BME280;63736;50.076;8.198;2023-10-31T03:59:21;97985.53;;;9.06;100.00
75157;BME280;63736;50.076;8.198;2023-10-31T04:01:46;97991.06;;;9.13;100.00
75157;BME280;63736;50.076;8.198;2023-10-31T04:04:12;97992.78;;;9.22;100.00
75157;BME280;63736;50.076;8.198;2023-10-31T04:06:37;97995.81;;;9.27;100.00
75157;BME280;63736;50.076;8.198;2023-10-31T04:09:06;98003.88;;;9.35;100.00
75157;BME280;63736;50.076;8.198;2023-10-31T04:11:31;98002.38;;;9.41;100.00
75157;BME280;63736;50.076;8.198;2023-10-31T04:13:56;98002.75;;;9.46;100.00
75157;BME280;63736;50.076;8.198;2023-10-31T04:16:21;98006.44;;;9.53;100.00
75157;BME280;63736;50.076;8.198;2023-10-31T04:18:47;98005.44;;;9.54;100.00
75157;BME280;63736;50.076;8.198;2023-10-31T04:21:12;97999.63;;;9.59;100.00
75157;BME280;63736;50.076;8.198;2023-10-31T04:23:37;98002.66;;;9.64;100.00
75157;BME280;63736;50.076;8.198;2023-10-31T04:26:03;98007.81;;;9.66;100.00
75157;BME280;63736;50.076;8.198;2023-10-31T04:28:28;98010.16;;;9.69;100.00
75157;BME280;63736;50.076;8.198;2023-10-31T04:30:53;98011.00;;;9.69;100.00
75157;BME280;63736;50.076;8.198;2023-10-31T04:33:19;98010.69;;;9.72;100.00
75157;BME280;63736;50.076;8.198;2023-10-31T04:35:44;98016.53;;;9.76;100.00
75157;BME280;63736;50.076;8.198;2023-10-31T04:38:09;98020.88;;;9.77;100.00
75157;BME280;63736;50.076;8.198;2023-10-31T04:40:35;98024.88;;;9.81;100.00
75157;BME280;63736;50.076;8.198;2023-10-31T04:43:01;98025.69;;;9.82;100.00
75157;BME280;63736;50.076;8.198;2023-10-31T04:45:26;98026.56;;;9.82;100.00
75157;BME280;63736;50.076;8.198;2023-10-31T04:47:51;98037.06;;;9.84;100.00
75157;BME280;63736;50.076;8.198;2023-10-31T04:50:17;98029.88;;;9.84;100.00
75157;BME280;63736;50.076;8.198;2023-10-31T04:52:42;98025.41;;;9.85;100.00
75157;BME280;63736;50.076;8.198;2023-10-31T04:55:07;98028.59;;;9.88;100.00
75157;BME280;63736;50.076;8.198;2023-10-31T04:57:33;98024.91;;;9.89;100.00
75157;BME280;63736;50.076;8.198;2023-10-31T04:59:58;98024.06;;;9.89;100.00
75157;BME280;63736;50.076;8.198;2023-10-31T05:02:24;98029.06;;;9.92;100.00
75157;BME280;63736;50.076;8.198;2023-10-31T05:04:49;98028.09;;;9.93;100.00
75157;BME280;63736;50.076;8.198;2023-10-31T05:07:18;98028.78;;;9.95;100.00
75157;BME280;63736;50.076;8.198;2023-10-31T05:09:43;98024.09;;;9.97;100.00
75157;BME280;63736;50.076;8.198;2023-10-31T05:12:09;98023.78;;;10.00;100.00
75157;BME280;63736;50.076;8.198;2023-10-31T05:14:34;98027.09;;;10.02;100.00
75157;BME280;63736;50.076;8.198;2023-10-31T05:17:00;98038.63;;;10.03;100.00
75157;BME280;63736;50.076;8.198;2023-10-31T05:19:25;98040.13;;;10.05;100.00
75157;BME280;63736;50.076;8.198;2023-10-31T05:21:51;98046.13;;;10.07;100.00
75157;BME280;63736;50.076;8.198;2023-10-31T05:24:16;98039.81;;;10.08;100.00
75157;BME280;63736;50.076;8.198;2023-10-31T05:26:42;98041.31;;;10.11;100.00
75157;BME280;63736;50.076;8.198;2023-10-31T05:29:08;98036.81;;;10.12;100.00
75157;BME280;63736;50.076;8.198;2023-10-31T05:31:33;98042.81;;;10.14;100.00
75157;BME280;63736;50.076;8.198;2023-10-31T05:33:59;98037.47;;;10.14;100.00
75157;BME280;63736;50.076;8.198;2023-10-31T05:36:25;98051.50;;;10.16;100.00
75157;BME280;63736;50.076;8.198;2023-10-31T05:38:50;98057.66;;;10.16;100.00
75157;BME280;63736;50.076;8.198;2023-10-31T05:41:16;98053.03;;;10.18;100.00
75157;BME280;63736;50.076;8.198;2023-10-31T05:43:41;98059.00;;;10.20;100.00
75157;BME280;63736;50.076;8.198;2023-10-31T05:46:07;98054.34;;;10.22;100.00
75157;BME280;63736;50.076;8.198;2023-10-31T05:48:37;98055.88;;;10.25;100.00
75157;BME280;63736;50.076;8.198;2023-10-31T05:51:03;98054.88;;;10.26;100.00
75157;BME280;63736;50.076;8.198;2023-10-31T05:53:28;98050.19;;;10.28;100.00
75157;BME280;63736;50.076;8.198;2023-10-31T05:55:53;98062.53;;;10.29;100.00
75157;BME280;63736;50.076;8.198;2023-10-31T05:58:19;98062.53;;;10.29;100.00
75157;BME280;63736;50.076;8.198;2023-10-31T06:00:44;98070.38;;;10.31;100.00
75157;BME280;63736;50.076;8.198;2023-10-31T06:03:09;98069.56;;;10.30;100.00
75157;BME280;63736;50.076;8.198;2023-10-31T06:05:35;98081.75;;;10.33;100.00
75157;BME280;63736;50.076;8.198;2023-10-31T06:08:00;98084.41;;;10.33;100.00
75157;BME280;63736;50.076;8.198;2023-10-31T06:10:26;98084.25;;;10.34;100.00
75157;BME280;63736;50.076;8.198;2023-10-31T06:12:51;98087.59;;;10.36;100.00
75157;BME280;63736;50.076;8.198;2023-10-31T06:15:16;98090.41;;;10.35;100.00
75157;BME280;63736;50.076;8.198;2023-10-31T06:17:41;98097.44;;;10.36;100.00
75157;BME280;63736;50.076;8.198;2023-10-31T06:20:08;98099.94;;;10.37;100.00
75157;BME280;63736;50.076;8.198;2023-10-31T06:22:33;98104.28;;;10.38;100.00
75157;BME280;63736;50.076;8.198;2023-10-31T06:24:59;98101.63;;;10.38;100.00
75157;BME280;63736;50.076;8.198;2023-10-31T06:27:24;98111.97;;;10.41;100.00
75157;BME280;63736;50.076;8.198;2023-10-31T06:29:49;98115.66;;;10.40;100.00
75157;BME280;63736;50.076;8.198;2023-10-31T06:32:14;98116.31;;;10.43;100.00
75157;BME280;63736;50.076;8.198;2023-10-31T06:34:40;98125.66;;;10.47;100.00
75157;BME280;63736;50.076;8.198;2023-10-31T06:37:05;98128.34;;;10.47;100.00
75157;BME280;63736;50.076;8.198;2023-10-31T06:39:30;98141.38;;;10.50;100.00
75157;BME280;63736;50.076;8.198;2023-10-31T06:41:56;98144.56;;;10.53;100.00
75157;BME280;63736;50.076;8.198;2023-10-31T06:44:21;98140.03;;;10.54;100.00
75157;BME280;63736;50.076;8.198;2023-10-31T06:46:47;98154.09;;;10.56;100.00
75157;BME280;63736;50.076;8.198;2023-10-31T06:49:12;98149.72;;;10.55;100.00
75157;BME280;63736;50.076;8.198;2023-10-31T06:51:37;98146.22;;;10.54;100.00
75157;BME280;63736;50.076;8.198;2023-10-31T06:54:03;98154.09;;;10.56;100.00
75157;BME280;63736;50.076;8.198;2023-10-31T06:56:28;98169.25;;;10.55;100.00
75157;BME280;63736;50.076;8.198;2023-10-31T06:58:54;98164.75;;;10.56;100.00
75157;BME280;63736;50.076;8.198;2023-10-31T07:01:19;98165.75;;;10.55;100.00
75157;BME280;63736;50.076;8.198;2023-10-31T07:03:44;98168.41;;;10.55;100.00
75157;BME280;63736;50.076;8.198;2023-10-31T07:06:10;98173.59;;;10.56;100.00
75157;BME280;63736;50.076;8.198;2023-10-31T07:08:35;98178.13;;;10.56;100.00
75157;BME280;63736;50.076;8.198;2023-10-31T07:11:00;98174.13;;;10.60;100.00
75157;BME280;63736;50.076;8.198;2023-10-31T07:13:25;98187.31;;;10.62;100.00
75157;BME280;63736;50.076;8.198;2023-10-31T07:15:51;98182.59;;;10.64;100.00
75157;BME280;63736;50.076;8.198;2023-10-31T07:18:16;98192.31;;;10.65;100.00
75157;BME280;63736;50.076;8.198;2023-10-31T07:20:42;98194.97;;;10.65;100.00
75157;BME280;63736;50.076;8.198;2023-10-31T07:23:07;98190.63;;;10.64;100.00
75157;BME280;63736;50.076;8.198;2023-10-31T07:25:32;98195.81;;;10.65;100.00
75157;BME280;63736;50.076;8.198;2023-10-31T07:27:57;98193.00;;;10.67;100.00
75157;BME280;63736;50.076;8.198;2023-10-31T07:30:23;98202.50;;;10.69;100.00
75157;BME280;63736;50.076;8.198;2023-10-31T07:32:48;98195.31;;;10.70;100.00
75157;BME280;63736;50.076;8.198;2023-10-31T07:35:13;98193.34;;;10.72;100.00
75157;BME280;63736;50.076;8.198;2023-10-31T07:37:38;98192.47;;;10.71;100.00
75157;BME280;63736;50.076;8.198;2023-10-31T07:40:04;98198.50;;;10.73;100.00
75157;BME280;63736;50.076;8.198;2023-10-31T07:42:30;98200.03;;;10.76;100.00
75157;BME280;63736;50.076;8.198;2023-10-31T07:44:55;98202.34;;;10.79;100.00
75157;BME280;63736;50.076;8.198;2023-10-31T07:47:21;98200.19;;;10.83;100.00
75157;BME280;63736;50.076;8.198;2023-10-31T07:49:46;98198.56;;;10.90;100.00
75157;BME280;63736;50.076;8.198;2023-10-31T07:52:11;98198.38;;;10.91;100.00
75157;BME280;63736;50.076;8.198;2023-10-31T07:54:39;98209.09;;;11.00;100.00
75157;BME280;63736;50.076;8.198;2023-10-31T07:57:08;98207.94;;;11.11;100.00
75157;BME280;63736;50.076;8.198;2023-10-31T07:59:34;98211.63;;;11.26;100.00
75157;BME280;63736;50.076;8.198;2023-10-31T08:01:59;98205.63;;;11.40;100.00
75157;BME280;63736;50.076;8.198;2023-10-31T08:04:24;98212.81;;;11.56;100.00
75157;BME280;63736;50.076;8.198;2023-10-31T08:06:50;98212.81;;;11.73;100.00
75157;BME280;63736;50.076;8.198;2023-10-31T08:09:15;98212.44;;;11.84;100.00
75157;BME280;63736;50.076;8.198;2023-10-31T08:11:41;98221.47;;;12.00;100.00
75157;BME280;63736;50.076;8.198;2023-10-31T08:14:06;98210.22;;;12.21;100.00
75157;BME280;63736;50.076;8.198;2023-10-31T08:16:32;98211.34;;;12.35;100.00
75157;BME280;63736;50.076;8.198;2023-10-31T08:18:57;98214.72;;;12.37;100.00
75157;BME280;63736;50.076;8.198;2023-10-31T08:21:22;98219.88;;;12.38;100.00
75157;BME280;63736;50.076;8.198;2023-10-31T08:23:47;98207.63;;;12.44;100.00
75157;BME280;63736;50.076;8.198;2023-10-31T08:26:13;98227.50;;;12.58;100.00
75157;BME280;63736;50.076;8.198;2023-10-31T08:28:38;98232.50;;;12.69;100.00
75157;BME280;63736;50.076;8.198;2023-10-31T08:31:03;98238.84;;;12.68;100.00
75157;BME280;63736;50.076;8.198;2023-10-31T08:33:29;98241.72;;;12.67;100.00
75157;BME280;63736;50.076;8.198;2023-10-31T08:35:54;98245.91;;;12.61;100.00
75157;BME280;63736;50.076;8.198;2023-10-31T08:38:20;98249.44;;;12.53;100.00
75157;BME280;63736;50.076;8.198;2023-10-31T08:40:45;98262.19;;;12.51;100.00
75157;BME280;63736;50.076;8.198;2023-10-31T08:43:10;98257.31;;;12.55;100.00
75157;BME280;63736;50.076;8.198;2023-10-31T08:45:36;98251.47;;;12.51;100.00
75157;BME280;63736;50.076;8.198;2023-10-31T08:48:01;98259.34;;;12.53;100.00
75157;BME280;63736;50.076;8.198;2023-10-31T08:50:26;98264.50;;;12.54;100.00
75157;BME280;63736;50.076;8.198;2023-10-31T08:52:54;98274.72;;;12.59;100.00
75157;BME280;63736;50.076;8.198;2023-10-31T08:55:19;98278.03;;;12.61;100.00
75157;BME280;63736;50.076;8.198;2023-10-31T08:57:45;98274.91;;;12.58;100.00
75157;BME280;63736;50.076;8.198;2023-10-31T09:00:11;98277.72;;;12.56;100.00
75157;BME280;63736;50.076;8.198;2023-10-31T09:02:36;98279.53;;;12.64;100.00
75157;BME280;63736;50.076;8.198;2023-10-31T09:05:01;98288.72;;;12.78;100.00
75157;BME280;63736;50.076;8.198;2023-10-31T09:07:27;98282.13;;;12.88;100.00
75157;BME280;63736;50.076;8.198;2023-10-31T09:09:52;98290.66;;;12.92;100.00
75157;BME280;63736;50.076;8.198;2023-10-31T09:12:17;98292.84;;;12.88;100.00
75157;BME280;63736;50.076;8.198;2023-10-31T09:14:43;98293.69;;;12.89;100.00
75157;BME280;63736;50.076;8.198;2023-10-31T09:17:08;98298.19;;;12.88;100.00
75157;BME280;63736;50.076;8.198;2023-10-31T09:19:33;98307.59;;;12.84;100.00
75157;BME280;63736;50.076;8.198;2023-10-31T09:21:58;98308.91;;;12.88;100.00
75157;BME280;63736;50.076;8.198;2023-10-31T09:24:24;98309.41;;;12.92;100.00
75157;BME280;63736;50.076;8.198;2023-10-31T09:26:49;98314.09;;;12.98;100.00
75157;BME280;63736;50.076;8.198;2023-10-31T09:29:14;98320.59;;;13.04;100.00
75157;BME280;63736;50.076;8.198;2023-10-31T09:31:39;98327.44;;;13.15;100.00
75157;BME280;63736;50.076;8.198;2023-10-31T09:34:05;98331.88;;;13.22;100.00
75157;BME280;63736;50.076;8.198;2023-10-31T09:36:33;98329.34;;;13.29;100.00
75157;BME280;63736;50.076;8.198;2023-10-31T09:39:02;98338.53;;;13.35;100.00
75157;BME280;63736;50.076;8.198;2023-10-31T09:41:28;98332.84;;;13.38;100.00
75157;BME280;63736;50.076;8.198;2023-10-31T09:43:53;98342.56;;;13.39;100.00
75157;BME280;63736;50.076;8.198;2023-10-31T09:46:21;98340.06;;;13.37;100.00
75157;BME280;63736;50.076;8.198;2023-10-31T09:48:46;98339.38;;;13.44;100.00
75157;BME280;63736;50.076;8.198;2023-10-31T09:51:12;98346.41;;;13.45;100.00
75157;BME280;63736;50.076;8.198;2023-10-31T09:53:39;98342.81;;;13.52;100.00
75157;BME280;63736;50.076;8.198;2023-10-31T09:56:06;98345.09;;;13.64;100.00
75157;BME280;63736;50.076;8.198;2023-10-31T09:58:33;98338.50;;;13.75;100.00
75157;BME280;63736;50.076;8.198;2023-10-31T10:00:58;98338.91;;;13.86;100.00
75157;BME280;63736;50.076;8.198;2023-10-31T10:03:23;98346.00;;;14.02;100.00
75157;BME280;63736;50.076;8.198;2023-10-31T10:05:48;98347.06;;;14.16;100.00
75157;BME280;63736;50.076;8.198;2023-10-31T10:08:14;98348.38;;;14.35;100.00
75157;BME280;63736;50.076;8.198;2023-10-31T10:10:41;98350.53;;;14.40;100.00
75157;BME280;63736;50.076;8.198;2023-10-31T10:13:06;98349.44;;;14.49;100.00
75157;BME280;63736;50.076;8.198;2023-10-31T10:15:51;98343.63;;;14.61;100.00
75157;BME280;63736;50.076;8.198;2023-10-31T10:18:34;98339.03;;;14.84;100.00
75157;BME280;63736;50.076;8.198;2023-10-31T10:21:04;98347.91;;;15.00;100.00
75157;BME280;63736;50.076;8.198;2023-10-31T10:23:32;98343.56;;;15.14;100.00
75157;BME280;63736;50.076;8.198;2023-10-31T10:25:58;98347.22;;;15.28;100.00
75157;BME280;63736;50.076;8.198;2023-10-31T10:28:25;98343.97;;;15.32;100.00
75157;BME280;63736;50.076;8.198;2023-10-31T10:30:52;98355.88;;;15.23;100.00
75157;BME280;63736;50.076;8.198;2023-10-31T10:33:19;98355.03;;;15.23;100.00
75157;BME280;63736;50.076;8.198;2023-10-31T10:35:45;98362.75;;;15.26;100.00
75157;BME280;63736;50.076;8.198;2023-10-31T10:38:12;98355.56;;;15.33;100.00
75157;BME280;63736;50.076;8.198;2023-10-31T10:40:43;98354.34;;;15.35;100.00
75157;BME280;63736;50.076;8.198;2023-10-31T10:43:15;98362.78;;;15.47;100.00
75157;BME280;63736;50.076;8.198;2023-10-31T10:45:43;98364.22;;;15.65;100.00
75157;BME280;63736;50.076;8.198;2023-10-31T10:48:15;98362.16;;;15.67;100.00
75157;BME280;63736;50.076;8.198;2023-10-31T10:50:42;98355.63;;;15.55;100.00
75157;BME280;63736;50.076;8.198;2023-10-31T10:53:23;98349.63;;;15.38;100.00
75157;BME280;63736;50.076;8.198;2023-10-31T10:55:51;98349.63;;;15.38;100.00
75157;BME280;63736;50.076;8.198;2023-10-31T10:58:34;98348.16;;;15.35;100.00
75157;BME280;63736;50.076;8.198;2023-10-31T11:01:03;98338.34;;;15.27;100.00
75157;BME280;63736;50.076;8.198;2023-10-31T11:03:29;98344.09;;;15.24;100.00
75157;BME280;63736;50.076;8.198;2023-10-31T11:05:55;98338.88;;;15.23;100.00
75157;BME280;63736;50.076;8.198;2023-10-31T11:08:20;98334.34;;;15.23;100.00
75157;BME280;63736;50.076;8.198;2023-10-31T11:10:46;98334.34;;;15.23;100.00
75157;BME280;63736;50.076;8.198;2023-10-31T11:13:13;98328.50;;;15.19;100.00
75157;BME280;63736;50.076;8.198;2023-10-31T11:15:39;98327.84;;;15.17;100.00
75157;BME280;63736;50.076;8.198;2023-10-31T11:18:05;98325.44;;;15.23;100.00
75157;BME280;63736;50.076;8.198;2023-10-31T11:20:31;98334.63;;;15.28;100.00
75157;BME280;63736;50.076;8.198;2023-10-31T11:22:56;98333.03;;;15.34;100.00
75157;BME280;63736;50.076;8.198;2023-10-31T11:25:31;98333.50;;;15.38;100.00
75157;BME280;63736;50.076;8.198;2023-10-31T11:27:57;98337.84;;;15.39;100.00
75157;BME280;63736;50.076;8.198;2023-10-31T11:30:35;98333.22;;;15.32;100.00
75157;BME280;63736;50.076;8.198;2023-10-31T11:33:01;98325.16;;;15.32;100.00
75157;BME280;63736;50.076;8.198;2023-10-31T11:35:30;98333.81;;;15.49;100.00
75157;BME280;63736;50.076;8.198;2023-10-31T11:38:03;98333.50;;;15.59;100.00
75157;BME280;63736;50.076;8.198;2023-10-31T11:40:35;98329.22;;;15.65;100.00
75157;BME280;63736;50.076;8.198;2023-10-31T11:43:05;98329.28;;;15.72;100.00
75157;BME280;63736;50.076;8.198;2023-10-31T11:45:36;98336.75;;;15.91;100.00
75157;BME280;63736;50.076;8.198;2023-10-31T11:48:03;98345.03;;;16.11;100.00
75157;BME280;63736;50.076;8.198;2023-10-31T11:50:30;98338.75;;;16.26;100.00
75157;BME280;63736;50.076;8.198;2023-10-31T11:53:05;98348.34;;;16.35;100.00
75157;BME280;63736;50.076;8.198;2023-10-31T11:55:32;98346.72;;;16.41;100.00
75157;BME280;63736;50.076;8.198;2023-10-31T11:58:11;98347.13;;;16.38;100.00
75157;BME280;63736;50.076;8.198;2023-10-31T12:00:36;98352.88;;;16.34;100.00
75157;BME280;63736;50.076;8.198;2023-10-31T12:03:01;98355.81;;;16.40;100.00
75157;BME280;63736;50.076;8.198;2023-10-31T12:05:27;98353.31;;;16.38;100.00
75157;BME280;63736;50.076;8.198;2023-10-31T12:07:53;98350.19;;;16.34;100.00
75157;BME280;63736;50.076;8.198;2023-10-31T12:10:24;98353.06;;;16.33;100.00
75157;BME280;63736;50.076;8.198;2023-10-31T12:12:50;98360.34;;;16.32;100.00
75157;BME280;63736;50.076;8.198;2023-10-31T12:15:15;98360.72;;;16.29;100.00
75157;BME280;63736;50.076;8.198;2023-10-31T12:17:42;98356.78;;;16.32;100.00
75157;BME280;63736;50.076;8.198;2023-10-31T12:20:08;98365.34;;;16.35;100.00
75157;BME280;63736;50.076;8.198;2023-10-31T12:22:37;98357.50;;;16.41;100.00
75157;BME280;63736;50.076;8.198;2023-10-31T12:25:09;98359.88;;;16.50;100.00
75157;BME280;63736;50.076;8.198;2023-10-31T12:27:49;98365.13;;;16.65;99.19
75157;BME280;63736;50.076;8.198;2023-10-31T12:30:18;98368.50;;;16.67;95.19
75157;BME280;63736;50.076;8.198;2023-10-31T12:32:45;98373.88;;;16.67;96.14
75157;BME280;63736;50.076;8.198;2023-10-31T12:35:12;98363.13;;;16.74;94.80
75157;BME280;63736;50.076;8.198;2023-10-31T12:37:44;98375.19;;;16.50;88.10
75157;BME280;63736;50.076;8.198;2023-10-31T12:40:12;98378.50;;;16.24;90.08
75157;BME280;63736;50.076;8.198;2023-10-31T12:42:38;98380.63;;;16.07;92.73
75157;BME280;63736;50.076;8.198;2023-10-31T12:45:05;98385.69;;;15.95;95.02
75157;BME280;63736;50.076;8.198;2023-10-31T12:47:30;98380.25;;;15.73;91.92